sensor_id;sensor_type;location;lat;lon;timestamp;P1;durP1;ratioP1;P2;durP2;ratioP2
15667;SDS011;7934;48.710;9.024;2023-07-08T00:01:18;10.33;;;6.27;;
15667;SDS011;7934;48.710;9.024;2023-07-08T00:03:46;9.00;;;6.77;;
15667;SDS011;7934;48.710;9.024;2023-07-08T00:06:15;9.03;;;6.03;;
15667;SDS011;7934;48.710;9.024;2023-07-08T00:08:43;8.43;;;6.57;;
15667;SDS011;7934;48.710;9.024;2023-07-08T00:11:10;9.87;;;6.23;;
15667;SDS011;7934;48.710;9.024;2023-07-08T00:13:39;8.20;;;5.70;;
15667;SDS011;7934;48.710;9.024;2023-07-08T00:16:08;11.10;;;6.27;;
15667;SDS011;7934;48.710;9.024;2023-07-08T00:18:36;10.97;;;7.97;;
15667;SDS011;7934;48.710;9.024;2023-07-08T00:21:04;13.73;;;6.43;;
15667;SDS011;7934;48.710;9.024;2023-07-08T00:23:35;7.50;;;6.47;;
15667;SDS011;7934;48.710;9.024;2023-07-08T00:26:02;10.30;;;6.80;;
15667;SDS011;7934;48.710;9.024;2023-07-08T00:28:29;8.63;;;6.63;;
15667;SDS011;7934;48.710;9.024;2023-07-08T00:30:57;9.10;;;6.77;;
15667;SDS011;7934;48.710;9.024;2023-07-08T00:33:25;7.17;;;6.17;;
15667;SDS011;7934;48.710;9.024;2023-07-08T00:35:52;7.60;;;6.03;;
15667;SDS011;7934;48.710;9.024;2023-07-08T00:38:20;10.63;;;6.40;;
15667;SDS011;7934;48.710;9.024;2023-07-08T00:40:52;9.40;;;7.23;;
15667;SDS011;7934;48.710;9.024;2023-07-08T00:43:21;8.20;;;5.93;;
15667;SDS011;7934;48.710;9.024;2023-07-08T00:45:49;9.87;;;6.77;;
15667;SDS011;7934;48.710;9.024;2023-07-08T00:48:22;7.93;;;6.33;;
15667;SDS011;7934;48.710;9.024;2023-07-08T00:50:50;8.10;;;6.00;;
15667;SDS011;7934;48.710;9.024;2023-07-08T00:53:24;7.97;;;6.60;;
15667;SDS011;7934;48.710;9.024;2023-07-08T00:55:52;8.83;;;6.00;;
15667;SDS011;7934;48.710;9.024;2023-07-08T00:58:20;9.27;;;6.60;;
15667;SDS011;7934;48.710;9.024;2023-07-08T01:00:49;8.23;;;6.00;;
15667;SDS011;7934;48.710;9.024;2023-07-08T01:03:18;7.67;;;6.33;;
15667;SDS011;7934;48.710;9.024;2023-07-08T01:05:47;8.13;;;6.27;;
15667;SDS011;7934;48.710;9.024;2023-07-08T01:08:15;10.67;;;5.97;;
15667;SDS011;7934;48.710;9.024;2023-07-08T01:10:43;8.40;;;6.70;;
15667;SDS011;7934;48.710;9.024;2023-07-08T01:13:11;9.03;;;6.03;;
15667;SDS011;7934;48.710;9.024;2023-07-08T01:15:41;10.07;;;6.47;;
15667;SDS011;7934;48.710;9.024;2023-07-08T01:18:09;9.53;;;6.60;;
15667;SDS011;7934;48.710;9.024;2023-07-08T01:20:39;7.57;;;6.00;;
15667;SDS011;7934;48.710;9.024;2023-07-08T01:23:08;15.80;;;6.57;;
15667;SDS011;7934;48.710;9.024;2023-07-08T01:25:36;13.20;;;6.07;;
15667;SDS011;7934;48.710;9.024;2023-07-08T01:28:03;9.53;;;7.20;;
15667;SDS011;7934;48.710;9.024;2023-07-08T01:30:31;11.60;;;6.20;;
15667;SDS011;7934;48.710;9.024;2023-07-08T01:32:59;11.87;;;6.50;;
15667;SDS011;7934;48.710;9.024;2023-07-08T01:35:28;9.27;;;6.50;;
15667;SDS011;7934;48.710;9.024;2023-07-08T01:37:56;9.53;;;5.90;;
15667;SDS011;7934;48.710;9.024;2023-07-08T01:40:27;7.73;;;5.53;;
15667;SDS011;7934;48.710;9.024;2023-07-08T01:42:54;10.77;;;6.30;;
15667;SDS011;7934;48.710;9.024;2023-07-08T01:45:22;10.00;;;6.57;;
15667;SDS011;7934;48.710;9.024;2023-07-08T01:47:50;8.13;;;6.10;;
15667;SDS011;7934;48.710;9.024;2023-07-08T01:50:19;9.20;;;5.70;;
15667;SDS011;7934;48.710;9.024;2023-07-08T01:52:47;8.20;;;6.13;;
15667;SDS011;7934;48.710;9.024;2023-07-08T01:55:14;7.80;;;6.23;;
15667;SDS011;7934;48.710;9.024;2023-07-08T01:57:43;8.57;;;6.03;;
15667;SDS011;7934;48.710;9.024;2023-07-08T02:00:10;8.57;;;5.70;;
15667;SDS011;7934;48.710;9.024;2023-07-08T02:02:38;7.63;;;5.57;;
15667;SDS011;7934;48.710;9.024;2023-07-08T02:05:05;6.40;;;5.73;;
15667;SDS011;7934;48.710;9.024;2023-07-08T02:07:32;7.93;;;5.83;;
15667;SDS011;7934;48.710;9.024;2023-07-08T02:09:59;10.13;;;6.10;;
15667;SDS011;7934;48.710;9.024;2023-07-08T02:12:26;12.40;;;6.13;;
15667;SDS011;7934;48.710;9.024;2023-07-08T02:14:55;8.33;;;5.80;;
15667;SDS011;7934;48.710;9.024;2023-07-08T02:17:22;7.93;;;5.90;;
15667;SDS011;7934;48.710;9.024;2023-07-08T02:19:49;9.93;;;5.90;;
15667;SDS011;7934;48.710;9.024;2023-07-08T02:22:16;7.07;;;5.47;;
15667;SDS011;7934;48.710;9.024;2023-07-08T02:24:43;11.70;;;6.53;;
15667;SDS011;7934;48.710;9.024;2023-07-08T02:27:11;9.67;;;5.70;;
15667;SDS011;7934;48.710;9.024;2023-07-08T02:29:38;6.70;;;5.27;;
15667;SDS011;7934;48.710;9.024;2023-07-08T02:32:07;7.90;;;6.17;;
15667;SDS011;7934;48.710;9.024;2023-07-08T02:34:35;13.17;;;5.73;;
15667;SDS011;7934;48.710;9.024;2023-07-08T02:37:02;8.63;;;6.77;;
15667;SDS011;7934;48.710;9.024;2023-07-08T02:39:30;7.67;;;5.97;;
15667;SDS011;7934;48.710;9.024;2023-07-08T02:41:57;7.67;;;5.83;;
15667;SDS011;7934;48.710;9.024;2023-07-08T02:44:24;8.03;;;5.93;;
15667;SDS011;7934;48.710;9.024;2023-07-08T02:46:52;7.33;;;6.07;;
15667;SDS011;7934;48.710;9.024;2023-07-08T02:49:20;8.93;;;6.20;;
15667;SDS011;7934;48.710;9.024;2023-07-08T02:51:47;13.27;;;6.50;;
15667;SDS011;7934;48.710;9.024;2023-07-08T02:54:15;7.50;;;5.70;;
15667;SDS011;7934;48.710;9.024;2023-07-08T02:56:42;9.07;;;6.07;;
15667;SDS011;7934;48.710;9.024;2023-07-08T02:59:09;8.93;;;6.13;;
15667;SDS011;7934;48.710;9.024;2023-07-08T03:01:36;8.17;;;5.90;;
15667;SDS011;7934;48.710;9.024;2023-07-08T03:04:06;8.57;;;5.93;;
15667;SDS011;7934;48.710;9.024;2023-07-08T03:06:39;8.10;;;6.73;;
15667;SDS011;7934;48.710;9.024;2023-07-08T03:09:06;14.80;;;6.73;;
15667;SDS011;7934;48.710;9.024;2023-07-08T03:11:33;10.53;;;6.53;;
15667;SDS011;7934;48.710;9.024;2023-07-08T03:14:01;10.77;;;6.20;;
15667;SDS011;7934;48.710;9.024;2023-07-08T03:16:28;7.60;;;5.90;;
15667;SDS011;7934;48.710;9.024;2023-07-08T03:18:55;8.83;;;6.53;;
15667;SDS011;7934;48.710;9.024;2023-07-08T03:21:22;10.17;;;6.33;;
15667;SDS011;7934;48.710;9.024;2023-07-08T03:23:51;9.67;;;6.57;;
15667;SDS011;7934;48.710;9.024;2023-07-08T03:26:19;9.37;;;6.13;;
15667;SDS011;7934;48.710;9.024;2023-07-08T03:28:47;7.77;;;5.80;;
15667;SDS011;7934;48.710;9.024;2023-07-08T03:31:14;9.13;;;5.90;;
15667;SDS011;7934;48.710;9.024;2023-07-08T03:33:42;9.10;;;6.00;;
15667;SDS011;7934;48.710;9.024;2023-07-08T03:36:10;8.07;;;5.63;;
15667;SDS011;7934;48.710;9.024;2023-07-08T03:38:38;9.10;;;6.30;;
15667;SDS011;7934;48.710;9.024;2023-07-08T03:41:06;8.87;;;6.20;;
15667;SDS011;7934;48.710;9.024;2023-07-08T03:43:34;7.73;;;6.10;;
15667;SDS011;7934;48.710;9.024;2023-07-08T03:46:01;8.50;;;6.23;;
15667;SDS011;7934;48.710;9.024;2023-07-08T03:48:28;6.87;;;5.90;;
15667;SDS011;7934;48.710;9.024;2023-07-08T03:50:55;8.13;;;6.23;;
15667;SDS011;7934;48.710;9.024;2023-07-08T03:53:22;6.90;;;6.17;;
15667;SDS011;7934;48.710;9.024;2023-07-08T03:55:49;13.27;;;5.67;;
15667;SDS011;7934;48.710;9.024;2023-07-08T03:58:18;7.07;;;5.57;;
15667;SDS011;7934;48.710;9.024;2023-07-08T04:00:45;6.60;;;5.30;;
15667;SDS011;7934;48.710;9.024;2023-07-08T04:03:12;7.63;;;6.03;;
15667;SDS011;7934;48.710;9.024;2023-07-08T04:05:39;8.17;;;5.63;;
15667;SDS011;7934;48.710;9.024;2023-07-08T04:08:06;10.50;;;6.27;;
15667;SDS011;7934;48.710;9.024;2023-07-08T04:10:34;9.17;;;6.17;;
15667;SDS011;7934;48.710;9.024;2023-07-08T04:13:01;7.27;;;6.03;;
15667;SDS011;7934;48.710;9.024;2023-07-08T04:15:29;10.17;;;6.33;;
15667;SDS011;7934;48.710;9.024;2023-07-08T04:17:56;9.50;;;6.10;;
15667;SDS011;7934;48.710;9.024;2023-07-08T04:20:24;9.67;;;6.53;;
15667;SDS011;7934;48.710;9.024;2023-07-08T04:22:51;10.10;;;6.27;;
15667;SDS011;7934;48.710;9.024;2023-07-08T04:25:18;8.67;;;6.30;;
15667;SDS011;7934;48.710;9.024;2023-07-08T04:27:45;10.83;;;6.30;;
15667;SDS011;7934;48.710;9.024;2023-07-08T04:30:14;11.70;;;6.37;;
15667;SDS011;7934;48.710;9.024;2023-07-08T04:32:46;9.20;;;6.63;;
15667;SDS011;7934;48.710;9.024;2023-07-08T04:35:13;7.43;;;5.93;;
15667;SDS011;7934;48.710;9.024;2023-07-08T04:37:40;8.23;;;5.83;;
15667;SDS011;7934;48.710;9.024;2023-07-08T04:40:10;9.20;;;6.40;;
15667;SDS011;7934;48.710;9.024;2023-07-08T04:42:39;7.30;;;5.60;;
15667;SDS011;7934;48.710;9.024;2023-07-08T04:45:07;9.27;;;5.80;;
15667;SDS011;7934;48.710;9.024;2023-07-08T04:47:34;8.20;;;6.07;;
15667;SDS011;7934;48.710;9.024;2023-07-08T04:50:03;6.90;;;6.00;;
15667;SDS011;7934;48.710;9.024;2023-07-08T04:52:30;8.07;;;6.10;;
15667;SDS011;7934;48.710;9.024;2023-07-08T04:54:58;7.67;;;5.93;;
15667;SDS011;7934;48.710;9.024;2023-07-08T04:57:25;6.23;;;5.63;;
15667;SDS011;7934;48.710;9.024;2023-07-08T04:59:52;10.00;;;6.50;;
15667;SDS011;7934;48.710;9.024;2023-07-08T05:02:19;6.97;;;5.97;;
15667;SDS011;7934;48.710;9.024;2023-07-08T05:04:46;8.97;;;5.90;;
15667;SDS011;7934;48.710;9.024;2023-07-08T05:07:15;8.43;;;6.10;;
15667;SDS011;7934;48.710;9.024;2023-07-08T05:09:42;11.00;;;6.37;;
15667;SDS011;7934;48.710;9.024;2023-07-08T05:12:09;11.77;;;6.63;;
15667;SDS011;7934;48.710;9.024;2023-07-08T05:14:36;7.43;;;5.93;;
15667;SDS011;7934;48.710;9.024;2023-07-08T05:17:03;7.73;;;5.43;;
15667;SDS011;7934;48.710;9.024;2023-07-08T05:19:31;9.37;;;6.03;;
15667;SDS011;7934;48.710;9.024;2023-07-08T05:21:58;9.63;;;5.67;;
15667;SDS011;7934;48.710;9.024;2023-07-08T05:24:27;7.83;;;5.50;;
15667;SDS011;7934;48.710;9.024;2023-07-08T05:26:54;8.67;;;6.07;;
15667;SDS011;7934;48.710;9.024;2023-07-08T05:29:21;6.80;;;5.60;;
15667;SDS011;7934;48.710;9.024;2023-07-08T05:31:48;8.87;;;6.70;;
15667;SDS011;7934;48.710;9.024;2023-07-08T05:34:16;7.77;;;5.90;;
15667;SDS011;7934;48.710;9.024;2023-07-08T05:36:43;12.20;;;6.17;;
15667;SDS011;7934;48.710;9.024;2023-07-08T05:39:10;12.20;;;6.40;;
15667;SDS011;7934;48.710;9.024;2023-07-08T05:41:39;12.10;;;7.17;;
15667;SDS011;7934;48.710;9.024;2023-07-08T05:44:06;9.37;;;6.13;;
15667;SDS011;7934;48.710;9.024;2023-07-08T05:46:33;9.57;;;6.43;;
15667;SDS011;7934;48.710;9.024;2023-07-08T05:49:00;7.70;;;6.00;;
15667;SDS011;7934;48.710;9.024;2023-07-08T05:51:28;9.13;;;7.07;;
15667;SDS011;7934;48.710;9.024;2023-07-08T05:53:55;7.23;;;5.80;;
15667;SDS011;7934;48.710;9.024;2023-07-08T05:56:22;7.80;;;6.03;;
15667;SDS011;7934;48.710;9.024;2023-07-08T05:58:51;10.53;;;6.77;;
15667;SDS011;7934;48.710;9.024;2023-07-08T06:01:18;8.73;;;6.17;;
15667;SDS011;7934;48.710;9.024;2023-07-08T06:03:45;7.20;;;5.27;;
15667;SDS011;7934;48.710;9.024;2023-07-08T06:06:12;7.30;;;6.57;;
15667;SDS011;7934;48.710;9.024;2023-07-08T06:08:39;7.20;;;6.20;;
15667;SDS011;7934;48.710;9.024;2023-07-08T06:11:06;9.47;;;6.63;;
15667;SDS011;7934;48.710;9.024;2023-07-08T06:13:34;9.70;;;6.70;;
15667;SDS011;7934;48.710;9.024;2023-07-08T06:16:02;9.63;;;6.50;;
15667;SDS011;7934;48.710;9.024;2023-07-08T06:18:29;8.77;;;5.50;;
15667;SDS011;7934;48.710;9.024;2023-07-08T06:20:57;8.23;;;5.80;;
15667;SDS011;7934;48.710;9.024;2023-07-08T06:23:25;9.63;;;6.17;;
15667;SDS011;7934;48.710;9.024;2023-07-08T06:25:52;10.87;;;6.87;;
15667;SDS011;7934;48.710;9.024;2023-07-08T06:28:19;9.97;;;5.97;;
15667;SDS011;7934;48.710;9.024;2023-07-08T06:30:47;8.47;;;5.57;;
15667;SDS011;7934;48.710;9.024;2023-07-08T06:33:15;7.80;;;6.13;;
15667;SDS011;7934;48.710;9.024;2023-07-08T06:35:43;6.20;;;5.60;;
15667;SDS011;7934;48.710;9.024;2023-07-08T06:38:10;9.90;;;5.27;;
15667;SDS011;7934;48.710;9.024;2023-07-08T06:40:37;6.97;;;5.27;;
15667;SDS011;7934;48.710;9.024;2023-07-08T06:43:05;8.83;;;5.50;;
15667;SDS011;7934;48.710;9.024;2023-07-08T06:45:32;9.50;;;5.63;;
15667;SDS011;7934;48.710;9.024;2023-07-08T06:47:59;9.90;;;6.03;;
15667;SDS011;7934;48.710;9.024;2023-07-08T06:50:27;5.70;;;5.10;;
15667;SDS011;7934;48.710;9.024;2023-07-08T06:52:55;6.27;;;4.90;;
15667;SDS011;7934;48.710;9.024;2023-07-08T06:55:23;6.67;;;5.40;;
15667;SDS011;7934;48.710;9.024;2023-07-08T06:57:50;5.93;;;4.70;;
15667;SDS011;7934;48.710;9.024;2023-07-08T07:00:18;9.77;;;5.67;;
15667;SDS011;7934;48.710;9.024;2023-07-08T07:02:45;9.07;;;5.00;;
15667;SDS011;7934;48.710;9.024;2023-07-08T07:05:13;6.53;;;4.53;;
15667;SDS011;7934;48.710;9.024;2023-07-08T07:07:42;8.07;;;5.50;;
15667;SDS011;7934;48.710;9.024;2023-07-08T07:10:09;6.50;;;4.90;;
15667;SDS011;7934;48.710;9.024;2023-07-08T07:12:36;8.23;;;5.60;;
15667;SDS011;7934;48.710;9.024;2023-07-08T07:15:04;6.20;;;5.07;;
15667;SDS011;7934;48.710;9.024;2023-07-08T07:17:31;6.57;;;5.23;;
15667;SDS011;7934;48.710;9.024;2023-07-08T07:20:00;7.87;;;4.90;;
15667;SDS011;7934;48.710;9.024;2023-07-08T07:22:27;6.67;;;4.77;;
15667;SDS011;7934;48.710;9.024;2023-07-08T07:24:56;5.60;;;4.60;;
15667;SDS011;7934;48.710;9.024;2023-07-08T07:27:23;6.47;;;4.70;;
15667;SDS011;7934;48.710;9.024;2023-07-08T07:29:50;5.87;;;3.77;;
15667;SDS011;7934;48.710;9.024;2023-07-08T07:32:18;4.50;;;4.10;;
15667;SDS011;7934;48.710;9.024;2023-07-08T07:34:46;6.40;;;4.40;;
15667;SDS011;7934;48.710;9.024;2023-07-08T07:37:14;4.60;;;3.97;;
15667;SDS011;7934;48.710;9.024;2023-07-08T07:39:41;5.63;;;3.70;;
15667;SDS011;7934;48.710;9.024;2023-07-08T07:42:10;6.43;;;3.73;;
15667;SDS011;7934;48.710;9.024;2023-07-08T07:44:38;5.63;;;3.87;;
15667;SDS011;7934;48.710;9.024;2023-07-08T07:47:05;6.83;;;3.97;;
15667;SDS011;7934;48.710;9.024;2023-07-08T07:49:33;4.20;;;3.80;;
15667;SDS011;7934;48.710;9.024;2023-07-08T07:52:00;6.27;;;3.67;;
15667;SDS011;7934;48.710;9.024;2023-07-08T07:54:27;4.10;;;3.70;;
15667;SDS011;7934;48.710;9.024;2023-07-08T07:56:54;5.47;;;3.77;;
15667;SDS011;7934;48.710;9.024;2023-07-08T07:59:23;5.53;;;3.43;;
15667;SDS011;7934;48.710;9.024;2023-07-08T08:01:50;4.13;;;3.77;;
15667;SDS011;7934;48.710;9.024;2023-07-08T08:04:17;4.67;;;3.10;;
15667;SDS011;7934;48.710;9.024;2023-07-08T08:06:44;5.20;;;3.77;;
15667;SDS011;7934;48.710;9.024;2023-07-08T08:09:12;13.17;;;4.63;;
15667;SDS011;7934;48.710;9.024;2023-07-08T08:11:39;3.97;;;3.50;;
15667;SDS011;7934;48.710;9.024;2023-07-08T08:14:07;3.87;;;3.47;;
15667;SDS011;7934;48.710;9.024;2023-07-08T08:16:35;3.67;;;3.33;;
15667;SDS011;7934;48.710;9.024;2023-07-08T08:19:02;6.57;;;4.03;;
15667;SDS011;7934;48.710;9.024;2023-07-08T08:21:30;4.80;;;4.23;;
15667;SDS011;7934;48.710;9.024;2023-07-08T08:23:57;6.10;;;3.83;;
15667;SDS011;7934;48.710;9.024;2023-07-08T08:26:25;4.50;;;3.70;;
15667;SDS011;7934;48.710;9.024;2023-07-08T08:28:53;16.00;;;3.80;;
15667;SDS011;7934;48.710;9.024;2023-07-08T08:31:20;3.50;;;2.93;;
15667;SDS011;7934;48.710;9.024;2023-07-08T08:33:49;4.97;;;3.60;;
15667;SDS011;7934;48.710;9.024;2023-07-08T08:36:17;5.47;;;3.33;;
15667;SDS011;7934;48.710;9.024;2023-07-08T08:38:45;4.87;;;2.50;;
15667;SDS011;7934;48.710;9.024;2023-07-08T08:41:13;4.47;;;3.13;;
15667;SDS011;7934;48.710;9.024;2023-07-08T08:43:41;4.28;;;2.53;;
15667;SDS011;7934;48.710;9.024;2023-07-08T08:46:09;8.38;;;2.95;;
15667;SDS011;7934;48.710;9.024;2023-07-08T08:48:40;26.30;;;3.63;;
15667;SDS011;7934;48.710;9.024;2023-07-08T08:51:12;4.63;;;2.90;;
15667;SDS011;7934;48.710;9.024;2023-07-08T08:53:40;3.83;;;2.97;;
15667;SDS011;7934;48.710;9.024;2023-07-08T08:56:09;3.40;;;2.33;;
15667;SDS011;7934;48.710;9.024;2023-07-08T08:58:39;3.92;;;2.80;;
15667;SDS011;7934;48.710;9.024;2023-07-08T09:01:10;3.20;;;3.00;;
15667;SDS011;7934;48.710;9.024;2023-07-08T09:03:41;4.20;;;2.90;;
15667;SDS011;7934;48.710;9.024;2023-07-08T09:06:12;3.80;;;2.92;;
15667;SDS011;7934;48.710;9.024;2023-07-08T09:08:40;2.90;;;2.70;;
15667;SDS011;7934;48.710;9.024;2023-07-08T09:11:15;5.78;;;3.03;;
15667;SDS011;7934;48.710;9.024;2023-07-08T09:13:44;3.80;;;2.75;;
15667;SDS011;7934;48.710;9.024;2023-07-08T09:16:14;2.93;;;2.47;;
15667;SDS011;7934;48.710;9.024;2023-07-08T09:18:43;4.77;;;2.80;;
15667;SDS011;7934;48.710;9.024;2023-07-08T09:21:16;2.90;;;2.70;;
15667;SDS011;7934;48.710;9.024;2023-07-08T09:23:46;3.70;;;2.50;;
15667;SDS011;7934;48.710;9.024;2023-07-08T09:26:15;5.77;;;2.77;;
15667;SDS011;7934;48.710;9.024;2023-07-08T09:28:44;3.55;;;2.47;;
15667;SDS011;7934;48.710;9.024;2023-07-08T09:31:20;4.03;;;2.60;;
15667;SDS011;7934;48.710;9.024;2023-07-08T09:33:50;2.93;;;2.50;;
15667;SDS011;7934;48.710;9.024;2023-07-08T09:36:21;2.40;;;2.20;;
15667;SDS011;7934;48.710;9.024;2023-07-08T09:38:49;4.47;;;2.67;;
15667;SDS011;7934;48.710;9.024;2023-07-08T09:41:28;2.55;;;2.30;;
15667;SDS011;7934;48.710;9.024;2023-07-08T09:44:02;4.72;;;2.42;;
15667;SDS011;7934;48.710;9.024;2023-07-08T09:46:31;2.97;;;2.40;;
15667;SDS011;7934;48.710;9.024;2023-07-08T09:49:08;3.45;;;2.83;;
15667;SDS011;7934;48.710;9.024;2023-07-08T09:51:37;5.97;;;2.92;;
15667;SDS011;7934;48.710;9.024;2023-07-08T09:54:05;2.75;;;2.55;;
15667;SDS011;7934;48.710;9.024;2023-07-08T09:56:32;2.97;;;2.78;;
15667;SDS011;7934;48.710;9.024;2023-07-08T09:58:59;2.85;;;2.58;;
15667;SDS011;7934;48.710;9.024;2023-07-08T10:01:26;3.55;;;2.53;;
15667;SDS011;7934;48.710;9.024;2023-07-08T10:03:57;3.20;;;2.70;;
15667;SDS011;7934;48.710;9.024;2023-07-08T10:06:25;4.15;;;3.03;;
15667;SDS011;7934;48.710;9.024;2023-07-08T10:08:55;3.35;;;3.03;;
15667;SDS011;7934;48.710;9.024;2023-07-08T10:11:23;3.17;;;2.92;;
15667;SDS011;7934;48.710;9.024;2023-07-08T10:13:53;3.35;;;3.13;;
15667;SDS011;7934;48.710;9.024;2023-07-08T10:16:21;3.22;;;3.10;;
15667;SDS011;7934;48.710;9.024;2023-07-08T10:18:49;5.30;;;3.08;;
15667;SDS011;7934;48.710;9.024;2023-07-08T10:21:21;3.20;;;3.00;;
15667;SDS011;7934;48.710;9.024;2023-07-08T10:23:51;3.60;;;3.15;;
15667;SDS011;7934;48.710;9.024;2023-07-08T10:26:25;6.38;;;2.90;;
15667;SDS011;7934;48.710;9.024;2023-07-08T10:28:58;6.22;;;3.53;;
15667;SDS011;7934;48.710;9.024;2023-07-08T10:31:30;4.30;;;2.70;;
15667;SDS011;7934;48.710;9.024;2023-07-08T10:34:08;7.32;;;3.63;;
15667;SDS011;7934;48.710;9.024;2023-07-08T10:36:43;4.07;;;2.83;;
15667;SDS011;7934;48.710;9.024;2023-07-08T10:39:19;4.03;;;2.67;;
15667;SDS011;7934;48.710;9.024;2023-07-08T10:41:52;2.70;;;2.50;;
15667;SDS011;7934;48.710;9.024;2023-07-08T10:44:23;3.25;;;2.80;;
15667;SDS011;7934;48.710;9.024;2023-07-08T10:46:55;2.97;;;2.78;;
15667;SDS011;7934;48.710;9.024;2023-07-08T10:49:34;2.90;;;2.70;;
15667;SDS011;7934;48.710;9.024;2023-07-08T10:52:11;3.65;;;2.78;;
15667;SDS011;7934;48.710;9.024;2023-07-08T10:54:45;4.13;;;3.05;;
15667;SDS011;7934;48.710;9.024;2023-07-08T10:57:23;3.20;;;2.45;;
15667;SDS011;7934;48.710;9.024;2023-07-08T10:59:59;3.00;;;2.70;;
15667;SDS011;7934;48.710;9.024;2023-07-08T11:02:34;5.65;;;3.00;;
15667;SDS011;7934;48.710;9.024;2023-07-08T11:05:20;3.00;;;2.80;;
15667;SDS011;7934;48.710;9.024;2023-07-08T11:07:52;3.22;;;3.03;;
15667;SDS011;7934;48.710;9.024;2023-07-08T11:10:23;3.40;;;3.20;;
15667;SDS011;7934;48.710;9.024;2023-07-08T11:12:56;3.58;;;3.33;;
15667;SDS011;7934;48.710;9.024;2023-07-08T11:15:26;3.95;;;3.28;;
15667;SDS011;7934;48.710;9.024;2023-07-08T11:17:57;4.80;;;3.45;;
15667;SDS011;7934;48.710;9.024;2023-07-08T11:20:34;4.28;;;2.90;;
15667;SDS011;7934;48.710;9.024;2023-07-08T11:23:04;6.55;;;3.00;;
15667;SDS011;7934;48.710;9.024;2023-07-08T11:25:32;4.03;;;2.55;;
15667;SDS011;7934;48.710;9.024;2023-07-08T11:28:02;3.40;;;2.85;;
15667;SDS011;7934;48.710;9.024;2023-07-08T11:30:31;3.67;;;2.75;;
15667;SDS011;7934;48.710;9.024;2023-07-08T11:33:02;3.47;;;3.00;;
15667;SDS011;7934;48.710;9.024;2023-07-08T11:35:35;2.80;;;2.60;;
15667;SDS011;7934;48.710;9.024;2023-07-08T11:38:03;5.35;;;2.60;;
15667;SDS011;7934;48.710;9.024;2023-07-08T11:40:31;3.45;;;2.60;;
15667;SDS011;7934;48.710;9.024;2023-07-08T11:43:06;2.65;;;2.45;;
15667;SDS011;7934;48.710;9.024;2023-07-08T11:45:35;2.35;;;2.15;;
15667;SDS011;7934;48.710;9.024;2023-07-08T11:48:04;2.78;;;2.58;;
15667;SDS011;7934;48.710;9.024;2023-07-08T11:50:35;2.38;;;2.13;;
15667;SDS011;7934;48.710;9.024;2023-07-08T11:53:06;5.05;;;2.17;;
15667;SDS011;7934;48.710;9.024;2023-07-08T11:55:34;4.63;;;2.35;;
15667;SDS011;7934;48.710;9.024;2023-07-08T11:58:07;3.10;;;2.63;;
15667;SDS011;7934;48.710;9.024;2023-07-08T12:00:34;2.05;;;1.92;;
15667;SDS011;7934;48.710;9.024;2023-07-08T12:03:18;2.65;;;2.17;;
15667;SDS011;7934;48.710;9.024;2023-07-08T12:05:46;2.08;;;1.88;;
15667;SDS011;7934;48.710;9.024;2023-07-08T12:08:14;1.65;;;1.55;;
15667;SDS011;7934;48.710;9.024;2023-07-08T12:10:48;3.63;;;2.00;;
15667;SDS011;7934;48.710;9.024;2023-07-08T12:13:22;3.83;;;1.98;;
15667;SDS011;7934;48.710;9.024;2023-07-08T12:15:50;2.63;;;2.42;;
15667;SDS011;7934;48.710;9.024;2023-07-08T12:18:19;3.40;;;2.35;;
15667;SDS011;7934;48.710;9.024;2023-07-08T12:20:48;2.38;;;2.17;;
15667;SDS011;7934;48.710;9.024;2023-07-08T12:23:18;2.13;;;1.95;;
15667;SDS011;7934;48.710;9.024;2023-07-08T12:25:46;3.40;;;2.10;;
15667;SDS011;7934;48.710;9.024;2023-07-08T12:28:14;2.20;;;2.10;;
15667;SDS011;7934;48.710;9.024;2023-07-08T12:30:44;2.63;;;2.00;;
15667;SDS011;7934;48.710;9.024;2023-07-08T12:33:13;3.08;;;2.15;;
15667;SDS011;7934;48.710;9.024;2023-07-08T12:35:41;2.30;;;1.85;;
15667;SDS011;7934;48.710;9.024;2023-07-08T12:38:13;2.33;;;2.22;;
15667;SDS011;7934;48.710;9.024;2023-07-08T12:40:41;3.63;;;2.22;;
15667;SDS011;7934;48.710;9.024;2023-07-08T12:43:09;2.70;;;2.50;;
15667;SDS011;7934;48.710;9.024;2023-07-08T12:45:37;2.50;;;2.30;;
15667;SDS011;7934;48.710;9.024;2023-07-08T12:48:06;1.90;;;1.80;;
15667;SDS011;7934;48.710;9.024;2023-07-08T12:50:33;2.83;;;2.22;;
15667;SDS011;7934;48.710;9.024;2023-07-08T12:53:00;2.08;;;1.98;;
15667;SDS011;7934;48.710;9.024;2023-07-08T12:55:29;2.40;;;1.65;;
15667;SDS011;7934;48.710;9.024;2023-07-08T12:57:57;2.47;;;2.20;;
15667;SDS011;7934;48.710;9.024;2023-07-08T13:00:25;2.10;;;2.00;;
15667;SDS011;7934;48.710;9.024;2023-07-08T13:02:55;2.25;;;2.08;;
15667;SDS011;7934;48.710;9.024;2023-07-08T13:05:25;1.90;;;1.80;;
15667;SDS011;7934;48.710;9.024;2023-07-08T13:07:53;2.22;;;2.13;;
15667;SDS011;7934;48.710;9.024;2023-07-08T13:10:21;3.05;;;2.17;;
15667;SDS011;7934;48.710;9.024;2023-07-08T13:12:51;2.50;;;2.28;;
15667;SDS011;7934;48.710;9.024;2023-07-08T13:15:20;2.17;;;2.00;;
15667;SDS011;7934;48.710;9.024;2023-07-08T13:17:48;3.33;;;2.20;;
15667;SDS011;7934;48.710;9.024;2023-07-08T13:20:15;1.98;;;1.88;;
15667;SDS011;7934;48.710;9.024;2023-07-08T13:22:45;2.40;;;2.20;;
15667;SDS011;7934;48.710;9.024;2023-07-08T13:25:14;3.83;;;2.40;;
15667;SDS011;7934;48.710;9.024;2023-07-08T13:27:42;2.53;;;2.33;;
15667;SDS011;7934;48.710;9.024;2023-07-08T13:30:21;3.75;;;2.45;;
15667;SDS011;7934;48.710;9.024;2023-07-08T13:32:51;3.90;;;2.42;;
15667;SDS011;7934;48.710;9.024;2023-07-08T13:35:26;2.33;;;2.13;;
15667;SDS011;7934;48.710;9.024;2023-07-08T13:37:56;2.30;;;2.05;;
15667;SDS011;7934;48.710;9.024;2023-07-08T13:40:26;4.28;;;2.92;;
15667;SDS011;7934;48.710;9.024;2023-07-08T13:42:53;6.78;;;2.58;;
15667;SDS011;7934;48.710;9.024;2023-07-08T13:45:22;2.60;;;2.40;;
15667;SDS011;7934;48.710;9.024;2023-07-08T13:47:59;2.28;;;2.08;;
15667;SDS011;7934;48.710;9.024;2023-07-08T13:50:27;2.35;;;2.20;;
15667;SDS011;7934;48.710;9.024;2023-07-08T13:52:57;5.47;;;2.58;;
15667;SDS011;7934;48.710;9.024;2023-07-08T13:55:24;5.20;;;2.70;;
15667;SDS011;7934;48.710;9.024;2023-07-08T13:57:57;2.55;;;2.35;;
15667;SDS011;7934;48.710;9.024;2023-07-08T14:00:25;3.80;;;3.03;;
15667;SDS011;7934;48.710;9.024;2023-07-08T14:02:53;2.95;;;2.75;;
15667;SDS011;7934;48.710;9.024;2023-07-08T14:05:20;2.43;;;2.23;;
15667;SDS011;7934;48.710;9.024;2023-07-08T14:07:48;2.33;;;2.23;;
15667;SDS011;7934;48.710;9.024;2023-07-08T14:10:16;3.95;;;2.53;;
15667;SDS011;7934;48.710;9.024;2023-07-08T14:12:44;2.60;;;2.27;;
15667;SDS011;7934;48.710;9.024;2023-07-08T14:15:11;4.23;;;2.43;;
15667;SDS011;7934;48.710;9.024;2023-07-08T14:17:38;2.77;;;2.50;;
15667;SDS011;7934;48.710;9.024;2023-07-08T14:20:11;2.60;;;2.40;;
15667;SDS011;7934;48.710;9.024;2023-07-08T14:22:38;3.43;;;2.40;;
15667;SDS011;7934;48.710;9.024;2023-07-08T14:25:07;4.23;;;2.70;;
15667;SDS011;7934;48.710;9.024;2023-07-08T14:27:37;3.37;;;2.77;;
15667;SDS011;7934;48.710;9.024;2023-07-08T14:30:04;8.43;;;2.80;;
15667;SDS011;7934;48.710;9.024;2023-07-08T14:32:32;3.07;;;2.37;;
15667;SDS011;7934;48.710;9.024;2023-07-08T14:35:14;2.60;;;2.40;;
15667;SDS011;7934;48.710;9.024;2023-07-08T14:37:42;3.03;;;2.57;;
15667;SDS011;7934;48.710;9.024;2023-07-08T14:40:11;2.70;;;2.03;;
15667;SDS011;7934;48.710;9.024;2023-07-08T14:42:44;7.70;;;2.63;;
15667;SDS011;7934;48.710;9.024;2023-07-08T14:45:12;2.13;;;1.93;;
15667;SDS011;7934;48.710;9.024;2023-07-08T14:47:39;2.80;;;2.40;;
15667;SDS011;7934;48.710;9.024;2023-07-08T14:50:11;3.07;;;2.60;;
15667;SDS011;7934;48.710;9.024;2023-07-08T14:52:39;6.47;;;2.70;;
15667;SDS011;7934;48.710;9.024;2023-07-08T14:55:07;4.93;;;2.17;;
15667;SDS011;7934;48.710;9.024;2023-07-08T14:57:37;2.40;;;2.20;;
15667;SDS011;7934;48.710;9.024;2023-07-08T15:00:09;4.43;;;2.30;;
15667;SDS011;7934;48.710;9.024;2023-07-08T15:02:36;5.30;;;2.33;;
15667;SDS011;7934;48.710;9.024;2023-07-08T15:05:09;3.53;;;2.50;;
15667;SDS011;7934;48.710;9.024;2023-07-08T15:07:38;2.30;;;2.10;;
15667;SDS011;7934;48.710;9.024;2023-07-08T15:10:06;2.63;;;1.97;;